sensor_id;sensor_type;location;lat;lon;timestamp;temperature;humidity
76787;DHT22;65739;51.482;5.702;2023-12-07T00:02:10;-0.30;99.90
76787;DHT22;65739;51.482;5.702;2023-12-07T00:04:46;-0.30;99.90
76787;DHT22;65739;51.482;5.702;2023-12-07T00:07:15;-0.40;99.90
76787;DHT22;65739;51.482;5.702;2023-12-07T00:09:44;-0.30;99.90
76787;DHT22;65739;51.482;5.702;2023-12-07T00:18:27;-0.30;99.90
76787;DHT22;65739;51.482;5.702;2023-12-07T00:20:58;-0.40;99.90
76787;DHT22;65739;51.482;5.702;2023-12-07T00:24:15;-0.40;99.90
76787;DHT22;65739;51.482;5.702;2023-12-07T00:26:19;-0.50;99.90
76787;DHT22;65739;51.482;5.702;2023-12-07T00:28:45;-0.50;99.90
76787;DHT22;65739;51.482;5.702;2023-12-07T00:31:11;-0.50;99.90
76787;DHT22;65739;51.482;5.702;2023-12-07T00:33:49;-0.50;99.90
76787;DHT22;65739;51.482;5.702;2023-12-07T00:36:38;-0.50;99.90
76787;DHT22;65739;51.482;5.702;2023-12-07T00:39:16;-0.50;99.90
76787;DHT22;65739;51.482;5.702;2023-12-07T00:41:45;-0.50;99.90
76787;DHT22;65739;51.482;5.702;2023-12-07T00:44:12;-0.60;99.90
76787;DHT22;65739;51.482;5.702;2023-12-07T00:46:38;-0.60;99.90
76787;DHT22;65739;51.482;5.702;2023-12-07T00:49:41;-0.60;99.90
76787;DHT22;65739;51.482;5.702;2023-12-07T00:52:27;-0.60;99.90
76787;DHT22;65739;51.482;5.702;2023-12-07T00:54:56;-0.60;99.90
76787;DHT22;65739;51.482;5.702;2023-12-07T00:57:25;-0.60;99.90
76787;DHT22;65739;51.482;5.702;2023-12-07T00:59:56;-0.60;99.90
76787;DHT22;65739;51.482;5.702;2023-12-07T01:02:49;-0.70;99.90
76787;DHT22;65739;51.482;5.702;2023-12-07T01:06:01;-0.70;99.90
76787;DHT22;65739;51.482;5.702;2023-12-07T01:09:14;-0.70;99.90
76787;DHT22;65739;51.482;5.702;2023-12-07T01:12:13;-0.60;99.90
76787;DHT22;65739;51.482;5.702;2023-12-07T01:14:58;-0.70;99.90
76787;DHT22;65739;51.482;5.702;2023-12-07T01:17:27;-0.70;99.90
76787;DHT22;65739;51.482;5.702;2023-12-07T01:19:55;-0.70;99.90
76787;DHT22;65739;51.482;5.702;2023-12-07T01:22:21;-0.70;99.90
76787;DHT22;65739;51.482;5.702;2023-12-07T01:29:27;-0.60;99.90
76787;DHT22;65739;51.482;5.702;2023-12-07T01:36:18;-0.50;99.90
76787;DHT22;65739;51.482;5.702;2023-12-07T01:39:08;-0.50;99.90
76787;DHT22;65739;51.482;5.702;2023-12-07T01:42:11;-0.60;99.90
76787;DHT22;65739;51.482;5.702;2023-12-07T01:44:42;-0.60;99.90
76787;DHT22;65739;51.482;5.702;2023-12-07T01:47:15;-0.70;99.90
76787;DHT22;65739;51.482;5.702;2023-12-07T01:49:49;-0.60;99.90
76787;DHT22;65739;51.482;5.702;2023-12-07T01:52:26;-0.50;99.90
76787;DHT22;65739;51.482;5.702;2023-12-07T01:55:01;-0.50;99.90
76787;DHT22;65739;51.482;5.702;2023-12-07T01:57:47;-0.40;99.90
76787;DHT22;65739;51.482;5.702;2023-12-07T02:00:22;-0.40;99.90
76787;DHT22;65739;51.482;5.702;2023-12-07T02:02:50;-0.40;99.90
76787;DHT22;65739;51.482;5.702;2023-12-07T02:05:16;-0.40;99.90
76787;DHT22;65739;51.482;5.702;2023-12-07T02:08:15;-0.40;99.90
76787;DHT22;65739;51.482;5.702;2023-12-07T02:11:13;-0.30;99.90
76787;DHT22;65739;51.482;5.702;2023-12-07T02:13:59;-0.30;99.90
76787;DHT22;65739;51.482;5.702;2023-12-07T02:17:00;-0.20;99.90
76787;DHT22;65739;51.482;5.702;2023-12-07T02:19:59;-0.20;99.90
76787;DHT22;65739;51.482;5.702;2023-12-07T02:22:59;-0.20;99.90
76787;DHT22;65739;51.482;5.702;2023-12-07T02:28:36;0.00;99.90
76787;DHT22;65739;51.482;5.702;2023-12-07T02:31:05;0.00;99.90
76787;DHT22;65739;51.482;5.702;2023-12-07T02:34:10;0.00;99.90
76787;DHT22;65739;51.482;5.702;2023-12-07T02:36:57;0.10;99.90
76787;DHT22;65739;51.482;5.702;2023-12-07T02:40:14;0.10;99.90
76787;DHT22;65739;51.482;5.702;2023-12-07T02:42:47;0.10;99.90
76787;DHT22;65739;51.482;5.702;2023-12-07T02:45:14;0.30;99.90
76787;DHT22;65739;51.482;5.702;2023-12-07T02:47:50;0.30;99.90
76787;DHT22;65739;51.482;5.702;2023-12-07T02:50:19;0.40;99.90
76787;DHT22;65739;51.482;5.702;2023-12-07T02:52:48;0.50;99.90
76787;DHT22;65739;51.482;5.702;2023-12-07T02:55:16;0.50;99.90
76787;DHT22;65739;51.482;5.702;2023-12-07T02:57:49;0.50;99.90
76787;DHT22;65739;51.482;5.702;2023-12-07T03:00:24;0.50;99.90
76787;DHT22;65739;51.482;5.702;2023-12-07T03:03:09;0.50;99.90
76787;DHT22;65739;51.482;5.702;2023-12-07T03:05:37;0.50;99.90
76787;DHT22;65739;51.482;5.702;2023-12-07T03:08:58;0.50;99.90
76787;DHT22;65739;51.482;5.702;2023-12-07T03:14:52;0.50;99.90
76787;DHT22;65739;51.482;5.702;2023-12-07T03:21:11;0.50;99.90
76787;DHT22;65739;51.482;5.702;2023-12-07T03:26:50;0.50;99.90
76787;DHT22;65739;51.482;5.702;2023-12-07T03:29:31;0.50;99.90
76787;DHT22;65739;51.482;5.702;2023-12-07T03:32:06;0.50;99.90
76787;DHT22;65739;51.482;5.702;2023-12-07T03:34:47;0.60;99.90
76787;DHT22;65739;51.482;5.702;2023-12-07T03:37:27;0.50;99.90
76787;DHT22;65739;51.482;5.702;2023-12-07T03:39:59;0.50;99.90
76787;DHT22;65739;51.482;5.702;2023-12-07T03:42:32;0.50;99.90
76787;DHT22;65739;51.482;5.702;2023-12-07T03:46:03;0.50;99.90
76787;DHT22;65739;51.482;5.702;2023-12-07T03:48:17;0.50;99.90
76787;DHT22;65739;51.482;5.702;2023-12-07T03:51:13;0.60;99.90
76787;DHT22;65739;51.482;5.702;2023-12-07T03:53:42;0.60;99.90
76787;DHT22;65739;51.482;5.702;2023-12-07T03:59:31;0.50;99.90
76787;DHT22;65739;51.482;5.702;2023-12-07T04:02:11;0.40;99.90
76787;DHT22;65739;51.482;5.702;2023-12-07T04:04:52;0.40;99.90
76787;DHT22;65739;51.482;5.702;2023-12-07T04:07:18;0.50;99.90
76787;DHT22;65739;51.482;5.702;2023-12-07T04:09:50;0.40;99.90
76787;DHT22;65739;51.482;5.702;2023-12-07T04:12:27;0.50;99.90
76787;DHT22;65739;51.482;5.702;2023-12-07T04:14:52;0.40;99.90
76787;DHT22;65739;51.482;5.702;2023-12-07T04:17:19;0.40;99.90
76787;DHT22;65739;51.482;5.702;2023-12-07T04:20:20;0.40;99.90
76787;DHT22;65739;51.482;5.702;2023-12-07T04:22:48;0.40;99.90
76787;DHT22;65739;51.482;5.702;2023-12-07T04:25:14;0.30;99.90
76787;DHT22;65739;51.482;5.702;2023-12-07T04:27:43;0.40;99.90
76787;DHT22;65739;51.482;5.702;2023-12-07T04:30:57;0.40;99.90
76787;DHT22;65739;51.482;5.702;2023-12-07T04:33:32;0.50;99.90
76787;DHT22;65739;51.482;5.702;2023-12-07T04:36:12;0.40;99.90
76787;DHT22;65739;51.482;5.702;2023-12-07T04:39:02;0.40;99.90
76787;DHT22;65739;51.482;5.702;2023-12-07T04:41:31;0.50;99.90
76787;DHT22;65739;51.482;5.702;2023-12-07T04:44:08;0.50;99.90
76787;DHT22;65739;51.482;5.702;2023-12-07T04:47:09;0.40;99.90
76787;DHT22;65739;51.482;5.702;2023-12-07T04:49:38;0.40;99.90
76787;DHT22;65739;51.482;5.702;2023-12-07T04:52:07;0.50;99.90
76787;DHT22;65739;51.482;5.702;2023-12-07T04:54:38;0.40;99.90
76787;DHT22;65739;51.482;5.702;2023-12-07T04:57:10;0.40;99.90
76787;DHT22;65739;51.482;5.702;2023-12-07T04:59:38;0.40;99.90
76787;DHT22;65739;51.482;5.702;2023-12-07T05:02:15;0.40;99.90
76787;DHT22;65739;51.482;5.702;2023-12-07T05:05:07;0.40;99.90
76787;DHT22;65739;51.482;5.702;2023-12-07T05:07:37;0.50;99.90
76787;DHT22;65739;51.482;5.702;2023-12-07T05:10:08;0.40;99.90
76787;DHT22;65739;51.482;5.702;2023-12-07T05:12:50;0.40;99.90
76787;DHT22;65739;51.482;5.702;2023-12-07T05:15:29;0.50;99.90
76787;DHT22;65739;51.482;5.702;2023-12-07T05:17:58;0.40;99.90
76787;DHT22;65739;51.482;5.702;2023-12-07T05:20:24;0.50;99.90
76787;DHT22;65739;51.482;5.702;2023-12-07T05:22:59;0.60;99.90
76787;DHT22;65739;51.482;5.702;2023-12-07T05:25:25;0.60;99.90
76787;DHT22;65739;51.482;5.702;2023-12-07T05:28:15;0.40;99.90
76787;DHT22;65739;51.482;5.702;2023-12-07T05:30:56;0.50;99.90
76787;DHT22;65739;51.482;5.702;2023-12-07T05:33:25;0.60;99.90
76787;DHT22;65739;51.482;5.702;2023-12-07T05:35:51;0.60;99.90
76787;DHT22;65739;51.482;5.702;2023-12-07T05:42:28;0.60;99.90
76787;DHT22;65739;51.482;5.702;2023-12-07T05:45:37;0.70;99.90
76787;DHT22;65739;51.482;5.702;2023-12-07T05:48:09;0.70;99.90
76787;DHT22;65739;51.482;5.702;2023-12-07T05:50:39;0.70;99.90
76787;DHT22;65739;51.482;5.702;2023-12-07T05:53:08;0.70;99.90
76787;DHT22;65739;51.482;5.702;2023-12-07T05:55:57;0.70;99.90
76787;DHT22;65739;51.482;5.702;2023-12-07T05:58:32;0.70;99.90
76787;DHT22;65739;51.482;5.702;2023-12-07T06:00:59;0.70;99.90
76787;DHT22;65739;51.482;5.702;2023-12-07T06:07:42;0.80;99.90
76787;DHT22;65739;51.482;5.702;2023-12-07T06:10:01;0.80;99.90
76787;DHT22;65739;51.482;5.702;2023-12-07T06:16:05;0.80;99.90
76787;DHT22;65739;51.482;5.702;2023-12-07T06:19:19;0.80;99.90
76787;DHT22;65739;51.482;5.702;2023-12-07T06:22:05;0.80;99.90
76787;DHT22;65739;51.482;5.702;2023-12-07T06:24:40;0.80;99.90
76787;DHT22;65739;51.482;5.702;2023-12-07T06:27:09;0.80;99.90
76787;DHT22;65739;51.482;5.702;2023-12-07T06:29:38;0.70;99.90
76787;DHT22;65739;51.482;5.702;2023-12-07T06:32:07;0.80;99.90
76787;DHT22;65739;51.482;5.702;2023-12-07T06:37:21;0.80;99.90
76787;DHT22;65739;51.482;5.702;2023-12-07T06:39:47;0.90;99.90
76787;DHT22;65739;51.482;5.702;2023-12-07T06:42:22;0.90;99.90
76787;DHT22;65739;51.482;5.702;2023-12-07T06:48:13;0.90;99.90
76787;DHT22;65739;51.482;5.702;2023-12-07T06:50:39;1.00;99.90
76787;DHT22;65739;51.482;5.702;2023-12-07T06:56:30;1.00;99.90
76787;DHT22;65739;51.482;5.702;2023-12-07T06:59:16;1.00;99.90
76787;DHT22;65739;51.482;5.702;2023-12-07T07:02:24;1.10;99.90
76787;DHT22;65739;51.482;5.702;2023-12-07T07:05:33;1.20;99.90
76787;DHT22;65739;51.482;5.702;2023-12-07T09:27:19;2.10;99.90
76787;DHT22;65739;51.482;5.702;2023-12-07T09:29:44;2.10;99.90
76787;DHT22;65739;51.482;5.702;2023-12-07T09:32:10;2.10;99.90
76787;DHT22;65739;51.482;5.702;2023-12-07T09:34:36;2.20;99.90
76787;DHT22;65739;51.482;5.702;2023-12-07T09:37:11;2.30;99.90
76787;DHT22;65739;51.482;5.702;2023-12-07T09:39:36;2.40;99.90
76787;DHT22;65739;51.482;5.702;2023-12-07T09:42:02;2.30;99.90
76787;DHT22;65739;51.482;5.702;2023-12-07T09:44:28;2.30;99.90
76787;DHT22;65739;51.482;5.702;2023-12-07T09:46:54;2.40;99.90
76787;DHT22;65739;51.482;5.702;2023-12-07T09:49:21;2.50;99.90
76787;DHT22;65739;51.482;5.702;2023-12-07T09:51:46;2.60;99.90
76787;DHT22;65739;51.482;5.702;2023-12-07T09:54:14;2.70;99.90
76787;DHT22;65739;51.482;5.702;2023-12-07T09:56:40;2.80;99.90
76787;DHT22;65739;51.482;5.702;2023-12-07T09:59:06;2.80;99.90
76787;DHT22;65739;51.482;5.702;2023-12-07T10:01:32;2.90;99.90
76787;DHT22;65739;51.482;5.702;2023-12-07T10:06:44;2.90;99.90
76787;DHT22;65739;51.482;5.702;2023-12-07T10:09:11;3.10;99.90
76787;DHT22;65739;51.482;5.702;2023-12-07T10:11:37;3.20;99.90
76787;DHT22;65739;51.482;5.702;2023-12-07T10:14:02;3.30;99.90
76787;DHT22;65739;51.482;5.702;2023-12-07T10:16:28;3.40;99.90
76787;DHT22;65739;51.482;5.702;2023-12-07T10:18:53;3.20;99.90
76787;DHT22;65739;51.482;5.702;2023-12-07T10:21:32;3.20;99.90
76787;DHT22;65739;51.482;5.702;2023-12-07T10:23:58;3.20;99.90
76787;DHT22;65739;51.482;5.702;2023-12-07T10:26:24;3.30;99.90
76787;DHT22;65739;51.482;5.702;2023-12-07T10:28:50;3.30;99.90
76787;DHT22;65739;51.482;5.702;2023-12-07T10:31:18;3.30;99.90
76787;DHT22;65739;51.482;5.702;2023-12-07T10:33:48;3.40;99.90
76787;DHT22;65739;51.482;5.702;2023-12-07T10:36:14;3.40;99.90
76787;DHT22;65739;51.482;5.702;2023-12-07T10:38:39;3.40;99.90
76787;DHT22;65739;51.482;5.702;2023-12-07T10:41:09;3.40;99.90
76787;DHT22;65739;51.482;5.702;2023-12-07T10:43:38;3.50;99.90
76787;DHT22;65739;51.482;5.702;2023-12-07T10:46:09;3.50;99.90
76787;DHT22;65739;51.482;5.702;2023-12-07T10:48:35;3.60;99.90
76787;DHT22;65739;51.482;5.702;2023-12-07T10:51:06;3.70;99.90
76787;DHT22;65739;51.482;5.702;2023-12-07T10:53:38;3.60;99.90
76787;DHT22;65739;51.482;5.702;2023-12-07T10:56:11;3.60;99.90
76787;DHT22;65739;51.482;5.702;2023-12-07T10:58:40;3.50;99.90
76787;DHT22;65739;51.482;5.702;2023-12-07T11:01:07;3.50;99.90
76787;DHT22;65739;51.482;5.702;2023-12-07T11:03:35;3.50;99.90
76787;DHT22;65739;51.482;5.702;2023-12-07T11:06:02;3.50;99.90
76787;DHT22;65739;51.482;5.702;2023-12-07T11:08:44;3.60;99.90
76787;DHT22;65739;51.482;5.702;2023-12-07T11:11:39;3.70;99.90
76787;DHT22;65739;51.482;5.702;2023-12-07T11:14:07;3.80;99.90
76787;DHT22;65739;51.482;5.702;2023-12-07T11:16:37;4.40;99.90
76787;DHT22;65739;51.482;5.702;2023-12-07T11:19:03;4.60;99.90
76787;DHT22;65739;51.482;5.702;2023-12-07T11:21:30;4.90;99.90
76787;DHT22;65739;51.482;5.702;2023-12-07T11:23:59;5.00;99.90
76787;DHT22;65739;51.482;5.702;2023-12-07T11:26:26;5.10;99.90
76787;DHT22;65739;51.482;5.702;2023-12-07T11:28:53;5.30;99.90
76787;DHT22;65739;51.482;5.702;2023-12-07T11:31:21;5.40;99.90
76787;DHT22;65739;51.482;5.702;2023-12-07T11:33:47;5.50;99.90
76787;DHT22;65739;51.482;5.702;2023-12-07T11:36:13;5.50;99.90
76787;DHT22;65739;51.482;5.702;2023-12-07T11:41:43;5.50;99.90
76787;DHT22;65739;51.482;5.702;2023-12-07T11:44:10;5.50;99.90
76787;DHT22;65739;51.482;5.702;2023-12-07T11:46:39;5.40;99.90
76787;DHT22;65739;51.482;5.702;2023-12-07T11:49:04;5.50;99.90
76787;DHT22;65739;51.482;5.702;2023-12-07T11:51:36;5.50;99.90
76787;DHT22;65739;51.482;5.702;2023-12-07T11:54:01;5.70;99.90
76787;DHT22;65739;51.482;5.702;2023-12-07T11:56:27;5.70;99.90
76787;DHT22;65739;51.482;5.702;2023-12-07T11:58:52;5.70;99.90
76787;DHT22;65739;51.482;5.702;2023-12-07T12:01:18;5.70;99.90
76787;DHT22;65739;51.482;5.702;2023-12-07T12:03:43;5.80;99.90
76787;DHT22;65739;51.482;5.702;2023-12-07T12:06:09;5.60;99.90
76787;DHT22;65739;51.482;5.702;2023-12-07T12:08:37;5.70;99.90
76787;DHT22;65739;51.482;5.702;2023-12-07T12:11:02;5.80;99.90
76787;DHT22;65739;51.482;5.702;2023-12-07T12:13:34;5.80;99.90
76787;DHT22;65739;51.482;5.702;2023-12-07T12:16:00;5.70;99.90
76787;DHT22;65739;51.482;5.702;2023-12-07T12:18:27;5.80;99.90
76787;DHT22;65739;51.482;5.702;2023-12-07T12:20:53;5.90;99.90
76787;DHT22;65739;51.482;5.702;2023-12-07T12:23:19;5.80;99.90
76787;DHT22;65739;51.482;5.702;2023-12-07T12:25:45;5.90;99.90
76787;DHT22;65739;51.482;5.702;2023-12-07T12:28:15;5.90;99.90
76787;DHT22;65739;51.482;5.702;2023-12-07T12:30:41;5.90;99.90
76787;DHT22;65739;51.482;5.702;2023-12-07T12:33:07;6.20;99.90
76787;DHT22;65739;51.482;5.702;2023-12-07T12:35:33;6.30;99.90
76787;DHT22;65739;51.482;5.702;2023-12-07T12:37:58;5.90;99.90
76787;DHT22;65739;51.482;5.702;2023-12-07T12:40:27;5.90;99.90
76787;DHT22;65739;51.482;5.702;2023-12-07T12:42:54;5.80;99.90
76787;DHT22;65739;51.482;5.702;2023-12-07T12:45:20;5.90;99.90
76787;DHT22;65739;51.482;5.702;2023-12-07T12:47:47;5.80;99.90
76787;DHT22;65739;51.482;5.702;2023-12-07T12:50:36;5.80;99.90
76787;DHT22;65739;51.482;5.702;2023-12-07T12:53:08;5.80;99.90
76787;DHT22;65739;51.482;5.702;2023-12-07T12:55:36;5.40;99.90
76787;DHT22;65739;51.482;5.702;2023-12-07T12:58:03;5.30;99.90
76787;DHT22;65739;51.482;5.702;2023-12-07T13:00:30;5.40;99.90
76787;DHT22;65739;51.482;5.702;2023-12-07T13:02:58;5.30;99.90
76787;DHT22;65739;51.482;5.702;2023-12-07T13:05:24;5.20;99.90
76787;DHT22;65739;51.482;5.702;2023-12-07T13:07:49;4.80;99.90
76787;DHT22;65739;51.482;5.702;2023-12-07T13:10:16;4.70;99.90
76787;DHT22;65739;51.482;5.702;2023-12-07T13:12:42;4.50;99.90
76787;DHT22;65739;51.482;5.702;2023-12-07T13:15:09;4.50;99.90
76787;DHT22;65739;51.482;5.702;2023-12-07T13:17:35;4.60;99.90
76787;DHT22;65739;51.482;5.702;2023-12-07T13:20:00;4.40;99.90
76787;DHT22;65739;51.482;5.702;2023-12-07T13:22:26;4.40;99.90
76787;DHT22;65739;51.482;5.702;2023-12-07T13:24:52;4.20;99.90
76787;DHT22;65739;51.482;5.702;2023-12-07T13:27:18;4.20;99.90
76787;DHT22;65739;51.482;5.702;2023-12-07T13:29:43;4.10;99.90
76787;DHT22;65739;51.482;5.702;2023-12-07T13:32:10;4.10;99.90
76787;DHT22;65739;51.482;5.702;2023-12-07T13:34:35;4.10;99.90
76787;DHT22;65739;51.482;5.702;2023-12-07T13:37:01;3.90;99.90
76787;DHT22;65739;51.482;5.702;2023-12-07T13:39:26;3.90;99.90
76787;DHT22;65739;51.482;5.702;2023-12-07T13:41:54;3.80;99.90
76787;DHT22;65739;51.482;5.702;2023-12-07T13:44:20;3.70;99.90
76787;DHT22;65739;51.482;5.702;2023-12-07T13:46:45;3.70;99.90
76787;DHT22;65739;51.482;5.702;2023-12-07T13:49:11;3.60;99.90
76787;DHT22;65739;51.482;5.702;2023-12-07T13:51:38;3.60;99.90
76787;DHT22;65739;51.482;5.702;2023-12-07T13:54:03;3.50;99.90
76787;DHT22;65739;51.482;5.702;2023-12-07T13:56:29;3.50;99.90
76787;DHT22;65739;51.482;5.702;2023-12-07T13:58:55;3.50;99.90
76787;DHT22;65739;51.482;5.702;2023-12-07T14:01:20;3.40;99.90
76787;DHT22;65739;51.482;5.702;2023-12-07T14:03:47;3.50;99.90
76787;DHT22;65739;51.482;5.702;2023-12-07T14:06:21;3.40;99.90
76787;DHT22;65739;51.482;5.702;2023-12-07T14:08:48;3.40;99.90
76787;DHT22;65739;51.482;5.702;2023-12-07T14:11:14;3.40;99.90
76787;DHT22;65739;51.482;5.702;2023-12-07T14:13:39;3.40;99.90
76787;DHT22;65739;51.482;5.702;2023-12-07T14:16:05;3.40;99.90
76787;DHT22;65739;51.482;5.702;2023-12-07T14:18:34;3.40;99.90
76787;DHT22;65739;51.482;5.702;2023-12-07T14:20:59;3.40;99.90
76787;DHT22;65739;51.482;5.702;2023-12-07T14:23:25;3.40;99.90
76787;DHT22;65739;51.482;5.702;2023-12-07T14:25:51;3.40;99.90
76787;DHT22;65739;51.482;5.702;2023-12-07T14:28:17;3.40;99.90
76787;DHT22;65739;51.482;5.702;2023-12-07T14:30:44;3.30;99.90
76787;DHT22;65739;51.482;5.702;2023-12-07T14:33:09;3.30;99.90
76787;DHT22;65739;51.482;5.702;2023-12-07T14:35:35;3.20;99.90
76787;DHT22;65739;51.482;5.702;2023-12-07T14:38:00;3.20;99.90
76787;DHT22;65739;51.482;5.702;2023-12-07T14:40:26;3.20;99.90
76787;DHT22;65739;51.482;5.702;2023-12-07T14:42:52;3.20;99.90
76787;DHT22;65739;51.482;5.702;2023-12-07T14:45:17;3.20;99.90
76787;DHT22;65739;51.482;5.702;2023-12-07T14:47:45;3.20;99.90
76787;DHT22;65739;51.482;5.702;2023-12-07T14:50:11;3.10;99.90
76787;DHT22;65739;51.482;5.702;2023-12-07T14:52:37;3.10;99.90
76787;DHT22;65739;51.482;5.702;2023-12-07T14:55:03;3.00;99.90
76787;DHT22;65739;51.482;5.702;2023-12-07T14:57:29;3.00;99.90
76787;DHT22;65739;51.482;5.702;2023-12-07T14:59:55;3.00;99.90
76787;DHT22;65739;51.482;5.702;2023-12-07T15:02:23;3.00;99.90
76787;DHT22;65739;51.482;5.702;2023-12-07T15:04:49;2.90;99.90
76787;DHT22;65739;51.482;5.702;2023-12-07T15:07:15;2.90;99.90
76787;DHT22;65739;51.482;5.702;2023-12-07T15:09:42;2.80;99.90
76787;DHT22;65739;51.482;5.702;2023-12-07T15:12:07;2.80;99.90
76787;DHT22;65739;51.482;5.702;2023-12-07T15:14:33;2.80;99.90
76787;DHT22;65739;51.482;5.702;2023-12-07T15:16:59;2.70;99.90
76787;DHT22;65739;51.482;5.702;2023-12-07T15:19:24;2.70;99.90
76787;DHT22;65739;51.482;5.702;2023-12-07T15:21:50;2.70;99.90
76787;DHT22;65739;51.482;5.702;2023-12-07T15:24:16;2.60;99.90
76787;DHT22;65739;51.482;5.702;2023-12-07T15:26:44;2.60;99.90
76787;DHT22;65739;51.482;5.702;2023-12-07T15:29:10;2.60;99.90
76787;DHT22;65739;51.482;5.702;2023-12-07T15:31:36;2.60;99.90
76787;DHT22;65739;51.482;5.702;2023-12-07T15:34:01;2.70;99.90
76787;DHT22;65739;51.482;5.702;2023-12-07T15:36:27;2.60;99.90
76787;DHT22;65739;51.482;5.702;2023-12-07T15:38:52;2.60;99.90
76787;DHT22;65739;51.482;5.702;2023-12-07T15:41:18;2.60;99.90
76787;DHT22;65739;51.482;5.702;2023-12-07T15:43:44;2.60;99.90
76787;DHT22;65739;51.482;5.702;2023-12-07T15:46:09;2.60;99.90
76787;DHT22;65739;51.482;5.702;2023-12-07T15:48:35;2.60;99.90
76787;DHT22;65739;51.482;5.702;2023-12-07T15:51:00;2.50;99.90
76787;DHT22;65739;51.482;5.702;2023-12-07T15:53:27;2.50;99.90
76787;DHT22;65739;51.482;5.702;2023-12-07T15:55:54;2.60;99.90
76787;DHT22;65739;51.482;5.702;2023-12-07T15:58:19;2.70;99.90
76787;DHT22;65739;51.482;5.702;2023-12-07T16:00:45;2.60;99.90
76787;DHT22;65739;51.482;5.702;2023-12-07T16:03:11;2.60;99.90
76787;DHT22;65739;51.482;5.702;2023-12-07T16:05:36;2.50;99.90
76787;DHT22;65739;51.482;5.702;2023-12-07T16:08:02;2.80;99.90
76787;DHT22;65739;51.482;5.702;2023-12-07T16:10:28;2.50;99.90
76787;DHT22;65739;51.482;5.702;2023-12-07T16:12:54;2.50;99.90
76787;DHT22;65739;51.482;5.702;2023-12-07T16:15:19;2.50;99.90
76787;DHT22;65739;51.482;5.702;2023-12-07T16:17:45;2.40;99.90
76787;DHT22;65739;51.482;5.702;2023-12-07T16:20:11;2.50;99.90
76787;DHT22;65739;51.482;5.702;2023-12-07T16:22:40;2.40;99.90
76787;DHT22;65739;51.482;5.702;2023-12-07T16:25:06;2.40;99.90
76787;DHT22;65739;51.482;5.702;2023-12-07T16:27:32;2.50;99.90
76787;DHT22;65739;51.482;5.702;2023-12-07T16:29:57;2.50;99.90
76787;DHT22;65739;51.482;5.702;2023-12-07T16:32:23;2.50;99.90
76787;DHT22;65739;51.482;5.702;2023-12-07T16:34:48;2.50;99.90
76787;DHT22;65739;51.482;5.702;2023-12-07T16:37:14;2.50;99.90
76787;DHT22;65739;51.482;5.702;2023-12-07T16:39:43;2.60;99.90
76787;DHT22;65739;51.482;5.702;2023-12-07T16:42:10;2.50;99.90
76787;DHT22;65739;51.482;5.702;2023-12-07T16:44:36;2.60;99.90
76787;DHT22;65739;51.482;5.702;2023-12-07T16:47:01;2.50;99.90
76787;DHT22;65739;51.482;5.702;2023-12-07T16:49:27;2.50;99.90
76787;DHT22;65739;51.482;5.702;2023-12-07T16:51:53;2.60;99.90
76787;DHT22;65739;51.482;5.702;2023-12-07T16:54:18;2.60;99.90
76787;DHT22;65739;51.482;5.702;2023-12-07T16:56:45;2.60;99.90
76787;DHT22;65739;51.482;5.702;2023-12-07T16:59:10;2.50;99.90
76787;DHT22;65739;51.482;5.702;2023-12-07T17:01:36;2.50;99.90
76787;DHT22;65739;51.482;5.702;2023-12-07T17:04:02;2.60;99.90
76787;DHT22;65739;51.482;5.702;2023-12-07T17:06:27;2.60;99.90
76787;DHT22;65739;51.482;5.702;2023-12-07T17:08:53;2.60;99.90
76787;DHT22;65739;51.482;5.702;2023-12-07T17:11:21;2.60;99.90
76787;DHT22;65739;51.482;5.702;2023-12-07T17:13:47;2.60;99.90
76787;DHT22;65739;51.482;5.702;2023-12-07T17:16:13;2.60;99.90
76787;DHT22;65739;51.482;5.702;2023-12-07T17:18:39;2.60;99.90
76787;DHT22;65739;51.482;5.702;2023-12-07T17:21:05;2.60;99.90
76787;DHT22;65739;51.482;5.702;2023-12-07T17:23:31;2.60;99.90
76787;DHT22;65739;51.482;5.702;2023-12-07T17:25:56;2.70;99.90
76787;DHT22;65739;51.482;5.702;2023-12-07T17:28:22;2.70;99.90
76787;DHT22;65739;51.482;5.702;2023-12-07T17:30:47;2.70;99.90
76787;DHT22;65739;51.482;5.702;2023-12-07T17:33:13;2.70;99.90
76787;DHT22;65739;51.482;5.702;2023-12-07T17:35:38;2.70;99.90
76787;DHT22;65739;51.482;5.702;2023-12-07T17:38:04;2.80;99.90
76787;DHT22;65739;51.482;5.702;2023-12-07T17:40:29;2.80;99.90
76787;DHT22;65739;51.482;5.702;2023-12-07T17:42:55;2.70;99.90
76787;DHT22;65739;51.482;5.702;2023-12-07T17:45:20;2.70;99.90
76787;DHT22;65739;51.482;5.702;2023-12-07T17:47:46;2.70;99.90
76787;DHT22;65739;51.482;5.702;2023-12-07T17:50:12;2.70;99.90
76787;DHT22;65739;51.482;5.702;2023-12-07T17:52:37;2.60;99.90
76787;DHT22;65739;51.482;5.702;2023-12-07T17:55:04;2.60;99.90
76787;DHT22;65739;51.482;5.702;2023-12-07T17:57:29;2.60;99.90
76787;DHT22;65739;51.482;5.702;2023-12-07T17:59:55;2.50;99.90
76787;DHT22;65739;51.482;5.702;2023-12-07T18:02:20;2.50;99.90
76787;DHT22;65739;51.482;5.702;2023-12-07T18:04:46;2.50;99.90
76787;DHT22;65739;51.482;5.702;2023-12-07T18:07:11;2.40;99.90
76787;DHT22;65739;51.482;5.702;2023-12-07T18:09:37;2.40;99.90
76787;DHT22;65739;51.482;5.702;2023-12-07T18:12:03;2.40;99.90
76787;DHT22;65739;51.482;5.702;2023-12-07T18:14:29;2.40;99.90
76787;DHT22;65739;51.482;5.702;2023-12-07T18:16:55;2.40;99.90
76787;DHT22;65739;51.482;5.702;2023-12-07T18:19:21;2.40;99.90
76787;DHT22;65739;51.482;5.702;2023-12-07T18:21:46;2.40;99.90
76787;DHT22;65739;51.482;5.702;2023-12-07T18:24:12;2.30;99.90
76787;DHT22;65739;51.482;5.702;2023-12-07T18:26:37;2.30;99.90
76787;DHT22;65739;51.482;5.702;2023-12-07T18:29:04;2.30;99.90
76787;DHT22;65739;51.482;5.702;2023-12-07T18:31:30;2.30;99.90
76787;DHT22;65739;51.482;5.702;2023-12-07T18:33:56;2.30;99.90
76787;DHT22;65739;51.482;5.702;2023-12-07T18:36:21;2.40;99.90
76787;DHT22;65739;51.482;5.702;2023-12-07T18:38:47;2.30;99.90
76787;DHT22;65739;51.482;5.702;2023-12-07T18:41:13;2.40;99.90
76787;DHT22;65739;51.482;5.702;2023-12-07T18:43:38;2.40;99.90
76787;DHT22;65739;51.482;5.702;2023-12-07T18:46:04;2.40;99.90
76787;DHT22;65739;51.482;5.702;2023-12-07T18:48:31;2.40;99.90
76787;DHT22;65739;51.482;5.702;2023-12-07T18:50:57;2.40;99.90
76787;DHT22;65739;51.482;5.702;2023-12-07T18:53:25;2.40;99.90
76787;DHT22;65739;51.482;5.702;2023-12-07T18:55:52;2.40;99.90
76787;DHT22;65739;51.482;5.702;2023-12-07T18:58:18;2.50;99.90
76787;DHT22;65739;51.482;5.702;2023-12-07T19:00:44;2.50;99.90
76787;DHT22;65739;51.482;5.702;2023-12-07T19:03:10;2.50;99.90
76787;DHT22;65739;51.482;5.702;2023-12-07T19:05:35;2.40;99.90
76787;DHT22;65739;51.482;5.702;2023-12-07T19:08:01;2.50;99.90
76787;DHT22;65739;51.482;5.702;2023-12-07T19:10:27;2.50;99.90
76787;DHT22;65739;51.482;5.702;2023-12-07T19:12:53;2.50;99.90
76787;DHT22;65739;51.482;5.702;2023-12-07T19:15:21;2.50;99.90
76787;DHT22;65739;51.482;5.702;2023-12-07T19:17:47;2.50;99.90
76787;DHT22;65739;51.482;5.702;2023-12-07T19:20:13;2.50;99.90
76787;DHT22;65739;51.482;5.702;2023-12-07T19:22:39;2.50;99.90
76787;DHT22;65739;51.482;5.702;2023-12-07T19:25:05;2.50;99.90
76787;DHT22;65739;51.482;5.702;2023-12-07T19:27:31;2.50;99.90